الصفحة الرئيسية
METAR-TAF:

METAR-TAF

مطار :

Oral, كازاخستان

دائرة عرض: 51-15N, خط طول: 051-17E, ارتفاع: 36 متر

مراقبة الطقس الحالي

تاريخ ووقت الإصدار 19 دقيقة قبل الساعة 06:30UTC
ريح 6 عقدة من الشمال الغربي, الاتجاه يتراوح بين الغرب و الشمال
درجة الحرارة 23°درجة مئوية
الرطوبة 38%
ضغط 1027 hPa
الرؤية 10 كم أو أكثر
الغيوم لا تقل 1500 م ولا وجود لمزنة ركامية السحاب الأسود

METAR: UARR 260630Z 31003MPS 280V350 CAVOK 23/08 Q1027 NOSIG RMK QFE767/1023

زمن: 11:49 (06:49 UTC)

توقعات

تاريخ ووقت الإصدار 1ساعة و 49 دقيقة قبل الساعة 05:00UTC
التوقعات صالحة من26 الساعة 06 UTC إلى 26 الساعة 15 UTC
ريح 8 عقدة من الشمال/الشمال الغربي
الرؤية 10 كم أو أكثر
الغيوم لا تقل 1500 م ولا وجود لمزنة ركامية السحاب الأسود
مؤقت
من 26 الساعة 06 UTC إلى 26 الساعة 08 UTC
ريح 4 عقدةمن اتجاهات متغيرة

TAF: UARR 260500Z 2606/2615 34004MPS CAVOK TEMPO 2606/2608 VRB02MPS

أرصاد الطقس والتوقعات من أكثر من 4000 مطار (تقارير الطقس للمطار METAR والتنبؤ بالطقس بالمطارTAF).

المحطات المتاحة هي النقط الصفراء والحمراء على الخريطة.

حرك المؤشر فوق النقطة لمعرفة اسم المحطة.

ثم انقر لمعرفة أرصاد وتوقعات الطقس.

لتغيير الخارطة: اضغط على الأزرار الخضراء مع رمز الصليب الأسود للتكبير. على الزر الأخضر مع شرطة للتصغير، أو على الأسهم الخضراء للخرائط المجاورة.


METAR-TAF: